Time;durP1;ratioP1;P1;durP2;ratioP2;P2;SDS_P1;SDS_P2;PMS_P1;PMS_P2;Temp;Humidity;BMP_temperature;BMP_pressure;BME280_temperature;BME280_humidity;BME280_pressure;Samples;Min_cycle;Max_cycle;Signal;HPM_P1;HPM_P2
2023/06/04 00:02:02;;;;;;;9.67;6.33;;;;;;;-141.97;61.51;47788.19;4995769;28;20255;-83
2023/06/04 00:04:27;;;;;;;9.10;6.30;;;;;;;-141.97;61.51;47415.28;4995569;28;20167;-83
2023/06/04 00:06:54;;;;;;;9.53;6.30;;;;;;;-141.97;61.85;47561.38;4995620;28;20172;-83
2023/06/04 00:09:19;;;;;;;9.87;6.30;;;;;;;-141.97;62.19;47734.34;4995529;28;20163;-82
2023/06/04 00:11:45;;;;;;;10.03;6.03;;;;;;;-141.97;62.03;47499.84;4995445;28;20171;-83
2023/06/04 00:14:11;;;;;;;9.03;6.23;;;;;;;-141.97;62.01;47580.59;4996140;28;20195;-82
2023/06/04 00:16:37;;;;;;;10.50;6.53;;;;;;;-141.97;62.17;47617.09;4995161;28;20178;-83
2023/06/04 00:19:02;;;;;;;11.30;6.07;;;;;;;-141.97;62.37;47599.81;4995742;28;20191;-84
2023/06/04 00:21:28;;;;;;;11.03;6.70;;;;;;;-141.97;62.18;47595.97;4978779;28;20623;-83
2023/06/04 00:23:53;;;;;;;9.93;6.37;;;;;;;-141.97;62.51;47588.28;4996070;28;20226;-83
2023/06/04 00:26:20;;;;;;;9.17;6.40;;;;;;;-141.97;62.70;47605.56;4978557;28;20171;-83
2023/06/04 00:28:45;;;;;;;9.23;6.00;;;;;;;-141.97;62.90;47730.50;4979927;28;20256;-82
2023/06/04 00:31:12;;;;;;;8.47;6.10;;;;;;;-141.97;63.01;47605.56;4999303;28;20196;-83
2023/06/04 00:33:38;;;;;;;7.80;6.03;;;;;;;-141.97;63.10;47530.59;5000007;28;20808;-82
2023/06/04 00:36:04;;;;;;;14.40;6.10;;;;;;;-141.97;63.04;47630.56;4995795;28;20207;-83
2023/06/04 00:38:30;;;;;;;8.13;6.00;;;;;;;-141.97;63.62;47588.28;4996247;28;20189;-83
2023/06/04 00:40:55;;;;;;;11.80;6.20;;;;;;;-141.97;63.79;47613.25;4995266;28;20183;-81
2023/06/04 00:43:20;;;;;;;8.87;6.10;;;;;;;-141.97;64.01;47549.84;4995527;28;20167;-83
2023/06/04 00:45:46;;;;;;;7.37;6.20;;;;;;;-141.97;64.10;47595.97;4995184;28;20183;-83
2023/06/04 00:48:11;;;;;;;9.93;6.70;;;;;;;-141.97;64.44;47546.00;4996247;28;20701;-83
2023/06/04 00:50:38;;;;;;;7.80;6.30;;;;;;;-141.97;64.39;47542.16;4995715;28;20254;-81
2023/06/04 00:53:05;;;;;;;7.97;6.03;;;;;;;-141.97;64.20;47592.13;4977599;28;20222;-82
2023/06/04 00:55:31;;;;;;;9.90;6.50;;;;;;;-141.97;63.71;47580.59;4995931;28;20261;-83
2023/06/04 00:57:56;;;;;;;11.43;6.53;;;;;;;-141.97;63.52;47815.09;4995746;28;20159;-83
2023/06/04 01:00:22;;;;;;;10.07;7.23;;;;;;;-141.97;63.71;47590.19;4978223;28;20226;-83
2023/06/04 01:02:53;;;;;;;10.57;6.60;;;;;;;-141.97;64.10;47570.97;4978034;28;20178;-83
2023/06/04 01:05:34;;;;;;;10.83;7.63;;;;;;;-141.97;63.96;47605.56;4977726;28;20172;-84
2023/06/04 01:08:00;;;;;;;10.67;7.33;;;;;;;-141.97;63.95;47597.88;4995618;28;20235;-83
2023/06/04 01:10:25;;;;;;;9.07;6.50;;;;;;;-141.97;63.45;47580.59;4995496;28;20258;-83
2023/06/04 01:12:51;;;;;;;8.43;6.37;;;;;;;-141.97;63.45;47619.03;4995911;28;20249;-83
2023/06/04 01:15:16;;;;;;;8.57;6.07;;;;;;;-141.97;63.21;47599.81;4995596;28;20729;-85
2023/06/04 01:17:46;;;;;;;9.40;6.90;;;;;;;-141.97;63.20;47597.88;4995058;28;20164;-83
2023/06/04 01:20:12;;;;;;;7.23;6.07;;;;;;;-141.97;62.95;47619.03;4999000;28;20190;-83
2023/06/04 01:22:51;;;;;;;8.47;6.60;;;;;;;-141.97;63.01;47792.03;5011355;28;20167;-84
2023/06/04 01:25:45;;;;;;;12.77;6.50;;;;;;;-141.97;63.46;47615.19;5014029;28;20712;-82
2023/06/04 01:28:12;;;;;;;9.23;6.57;;;;;;;-141.97;63.64;47615.19;4994852;28;20167;-83
2023/06/04 01:30:42;;;;;;;8.57;6.80;;;;;;;-141.97;63.54;47742.03;4994390;28;20209;-83
2023/06/04 01:33:10;;;;;;;10.07;6.33;;;;;;;-141.97;63.18;47599.81;4994868;28;20170;-83
2023/06/04 01:35:36;;;;;;;7.90;6.60;;;;;;;-141.97;63.13;47578.66;5002649;28;20350;-83
2023/06/04 01:38:02;;;;;;;9.10;6.33;;;;;;;-141.97;63.27;47617.09;4996430;28;20616;-83
2023/06/04 01:40:27;;;;;;;8.03;6.50;;;;;;;-141.97;62.87;47734.34;4994264;28;20175;-83
2023/06/04 01:42:54;;;;;;;9.77;6.60;;;;;;;-141.97;62.84;47555.59;4994878;28;20643;-83
2023/06/04 01:45:21;;;;;;;9.73;6.63;;;;;;;-141.97;62.81;47570.97;4976628;28;20270;-83
2023/06/04 01:47:46;;;;;;;8.73;6.70;;;;;;;-141.97;62.80;47563.28;4995905;28;20222;-83
2023/06/04 01:50:12;;;;;;;8.17;6.37;;;;;;;-141.97;62.56;47565.22;4998395;28;20164;-83
2023/06/04 01:52:38;;;;;;;8.97;6.60;;;;;;;-141.97;62.78;47563.28;4998393;28;20254;-83
2023/06/04 01:55:07;;;;;;;12.20;7.90;;;;;;;-141.97;62.84;47609.41;4998386;28;20211;-83
2023/06/04 01:57:33;;;;;;;10.43;6.93;;;;;;;-141.97;62.55;47544.06;4998299;28;20160;-83
2023/06/04 01:59:58;;;;;;;9.90;6.77;;;;;;;-141.97;63.06;47597.88;4997787;28;20708;-83
2023/06/04 02:02:25;;;;;;;10.07;6.70;;;;;;;-141.97;62.95;47630.56;4997335;28;20229;-83
2023/06/04 02:04:51;;;;;;;9.63;6.60;;;;;;;-141.97;63.44;47569.06;4996726;28;20547;-83
2023/06/04 02:07:20;;;;;;;12.37;7.30;;;;;;;-141.97;63.76;47793.94;4997536;28;20174;-83
2023/06/04 02:09:46;;;;;;;8.47;6.80;;;;;;;-141.97;64.06;47613.25;4996882;28;20166;-84
2023/06/04 02:12:12;;;;;;;10.73;6.77;;;;;;;-141.97;63.95;47619.03;4997354;28;20172;-83
2023/06/04 02:14:37;;;;;;;12.33;7.10;;;;;;;-141.97;63.98;47607.50;4996429;28;20217;-83
2023/06/04 02:17:04;;;;;;;8.93;6.90;;;;;;;-141.97;63.66;47592.13;4996875;28;20616;-83
2023/06/04 02:19:30;;;;;;;8.17;6.90;;;;;;;-141.97;63.83;47815.09;4996639;28;20163;-83
2023/06/04 02:21:55;;;;;;;10.27;7.00;;;;;;;-141.97;64.17;47588.28;4996787;28;20178;-83
2023/06/04 02:24:22;;;;;;;10.43;6.77;;;;;;;-141.97;64.03;47557.53;4996912;28;20659;-83
2023/06/04 02:26:47;;;;;;;10.43;7.47;;;;;;;-141.97;64.21;47582.50;4997538;28;20174;-83
2023/06/04 02:29:12;;;;;;;10.13;6.77;;;;;;;-141.97;64.20;47595.97;4996834;28;20159;-83
2023/06/04 02:31:38;;;;;;;7.67;6.33;;;;;;;-141.97;63.91;47638.25;4996475;28;20555;-82
2023/06/04 02:34:03;;;;;;;11.33;7.20;;;;;;;-141.97;63.73;47628.63;4997010;28;20229;-83
2023/06/04 02:36:30;;;;;;;10.13;7.00;;;;;;;-141.97;64.09;47770.88;4996765;28;20173;-83
2023/06/04 02:38:55;;;;;;;9.07;6.90;;;;;;;-141.97;64.17;47540.22;4996649;28;20250;-83
2023/06/04 02:41:21;;;;;;;8.23;6.60;;;;;;;-141.97;64.37;47778.56;4995943;28;20641;-83
2023/06/04 02:43:46;;;;;;;9.30;6.90;;;;;;;-141.97;64.33;47611.34;4995771;28;20266;-83
2023/06/04 02:46:12;;;;;;;9.27;7.00;;;;;;;-141.97;64.23;47628.63;4996150;28;20171;-83
2023/06/04 02:48:37;;;;;;;10.77;7.00;;;;;;;-141.97;64.12;47576.75;4995695;28;20191;-83
2023/06/04 02:51:02;;;;;;;11.53;6.93;;;;;;;-141.97;64.35;47588.28;4995960;28;20172;-81
2023/06/04 02:53:28;;;;;;;10.30;7.43;;;;;;;-141.97;64.81;47590.19;4994330;28;20274;-83
2023/06/04 02:55:53;;;;;;;9.53;7.30;;;;;;;-141.97;65.67;47613.25;4995234;28;20183;-83
2023/06/04 02:58:21;;;;;;;11.13;6.80;;;;;;;-141.97;65.55;47519.06;4995184;28;20255;-83
2023/06/04 03:00:46;;;;;;;12.37;7.37;;;;;;;-141.97;65.64;47586.34;4994644;28;20183;-82
2023/06/04 03:03:12;;;;;;;9.40;6.40;;;;;;;-141.97;65.71;47611.34;4994161;28;20199;-82
2023/06/04 03:05:39;;;;;;;14.43;7.10;;;;;;;-141.97;66.00;47553.69;4995142;28;20170;-82
2023/06/04 03:08:05;;;;;;;8.80;6.87;;;;;;;-141.97;66.30;47655.53;4995375;28;20156;-82
2023/06/04 03:10:31;;;;;;;9.33;7.13;;;;;;;-141.97;66.54;47592.13;4995248;28;20172;-83
2023/06/04 03:12:56;;;;;;;9.23;6.83;;;;;;;-141.97;66.15;47607.50;4995960;28;20620;-83
2023/06/04 03:15:21;;;;;;;11.93;7.13;;;;;;;-141.97;66.24;47553.69;4996062;28;20191;-83
2023/06/04 03:17:47;;;;;;;13.03;7.13;;;;;;;-141.97;66.37;47588.28;4995778;28;20159;-83
2023/06/04 03:20:12;;;;;;;12.00;6.67;;;;;;;-141.97;65.93;47611.34;4994722;28;20223;-84
2023/06/04 03:22:38;;;;;;;8.73;6.77;;;;;;;-141.97;65.88;47576.75;4977951;28;20175;-82
2023/06/04 03:25:04;;;;;;;12.97;6.77;;;;;;;-141.97;65.25;47580.59;4996086;28;20584;-82
2023/06/04 03:27:31;;;;;;;9.17;6.37;;;;;;;-141.97;64.81;47630.56;4995439;28;20183;-82
2023/06/04 03:29:57;;;;;;;11.63;6.43;;;;;;;-141.97;64.61;47607.50;4995530;28;20182;-83
2023/06/04 03:32:22;;;;;;;8.93;6.70;;;;;;;-141.97;64.04;47601.72;4995550;28;20216;-84
2023/06/04 03:34:47;;;;;;;10.93;7.10;;;;;;;-141.97;63.99;47649.78;4995486;28;20567;-83
2023/06/04 03:37:13;;;;;;;9.00;6.70;;;;;;;-141.97;63.77;47576.75;4960073;28;20195;-83
2023/06/04 03:39:38;;;;;;;11.47;7.03;;;;;;;-141.97;64.00;47640.16;4976283;28;20168;-84
2023/06/04 03:42:04;;;;;;;12.07;6.97;;;;;;;-141.97;63.84;47734.34;4978566;28;20175;-83
2023/06/04 03:44:30;;;;;;;9.00;6.57;;;;;;;-141.97;63.56;47588.28;4989336;28;20149;-83
2023/06/04 03:46:55;;;;;;;10.37;6.00;;;;;;;-141.97;63.45;47576.75;4997656;28;20156;-84
2023/06/04 03:49:21;;;;;;;9.93;6.83;;;;;;;-141.97;63.39;47553.69;4975207;28;20168;-84
2023/06/04 03:51:47;;;;;;;8.20;6.67;;;;;;;-141.97;63.21;47586.34;4975057;28;20168;-84
2023/06/04 03:54:16;;;;;;;9.27;6.87;;;;;;;-141.97;62.67;47557.53;4974308;28;20196;-83
2023/06/04 03:56:43;;;;;;;11.13;7.07;;;;;;;-141.97;62.16;47517.16;4974480;28;20160;-83
2023/06/04 03:59:08;;;;;;;10.60;6.50;;;;;;;-141.97;62.12;47469.09;4978104;28;20327;-83
2023/06/04 04:01:34;;;;;;;8.53;6.30;;;;;;;-141.97;61.54;47615.19;4975214;28;20680;-83
2023/06/04 04:03:59;;;;;;;8.93;6.80;;;;;;;-141.97;61.29;47478.72;4975358;28;20172;-82
2023/06/04 04:06:24;;;;;;;9.83;6.70;;;;;;;-141.97;61.49;47582.50;4957023;28;20172;-83
2023/06/04 04:08:50;;;;;;;9.13;6.47;;;;;;;-141.97;60.93;47584.44;4957401;28;20180;-84
2023/06/04 04:11:16;;;;;;;9.40;7.07;;;;;;;-141.97;60.73;47605.56;4973458;28;20249;-83
2023/06/04 04:13:42;;;;;;;13.93;9.73;;;;;;;-141.97;61.00;47684.38;4973729;28;20703;-83
2023/06/04 04:16:07;;;;;;;10.67;6.80;;;;;;;-141.97;60.96;47751.66;4957167;28;20203;-83
2023/06/04 04:18:36;;;;;;;9.20;7.10;;;;;;;-141.97;60.60;47607.50;4974134;28;20168;-83
2023/06/04 04:21:03;;;;;;;11.90;8.00;;;;;;;-141.97;60.94;47576.75;4974409;28;20192;-84
2023/06/04 04:23:29;;;;;;;11.90;8.10;;;;;;;-141.97;61.32;47594.03;4974066;28;20164;-82
2023/06/04 04:25:58;;;;;;;13.50;9.27;;;;;;;-141.97;60.73;47549.84;4973860;28;20164;-83
2023/06/04 04:28:28;;;;;;;9.77;7.47;;;;;;;-141.97;60.75;47515.22;4973531;28;20163;-83
2023/06/04 04:30:56;;;;;;;12.43;7.83;;;;;;;-141.97;60.51;47405.69;4974217;28;20164;-83
2023/06/04 04:33:24;;;;;;;12.40;8.67;;;;;;;-141.97;60.55;47776.63;4974048;28;20163;-84
2023/06/04 04:35:50;;;;;;;12.87;7.23;;;;;;;-141.97;60.70;47559.44;4974222;28;20202;-83
2023/06/04 04:38:17;;;;;;;11.20;7.67;;;;;;;-141.97;60.18;47740.13;4973445;28;20179;-84
2023/06/04 04:40:42;;;;;;;9.73;7.13;;;;;;;-141.97;60.09;47661.31;4956293;28;20183;-83
2023/06/04 04:43:08;;;;;;;12.00;6.93;;;;;;;-141.97;59.48;47586.34;4956242;28;20172;-83
2023/06/04 04:45:33;;;;;;;8.87;6.70;;;;;;;-141.97;59.51;47446.03;4973957;28;20171;-82
2023/06/04 04:47:58;;;;;;;11.50;7.37;;;;;;;-141.97;59.62;47538.28;4974544;28;20176;-83
2023/06/04 04:50:24;;;;;;;10.83;6.90;;;;;;;-141.97;59.44;47547.91;4974253;28;20607;-83
2023/06/04 04:52:49;;;;;;;10.87;7.70;;;;;;;-141.97;60.19;47422.97;4974031;28;20199;-82
2023/06/04 04:55:15;;;;;;;10.57;6.93;;;;;;;-141.97;59.64;47582.50;4973669;28;20270;-83
2023/06/04 04:57:40;;;;;;;9.73;7.50;;;;;;;-141.97;59.39;47586.34;4973787;28;20539;-84
2023/06/04 05:00:08;;;;;;;12.60;8.73;;;;;;;-141.97;61.57;47434.50;5010714;28;20218;-83
2023/06/04 05:02:35;;;;;;;10.87;8.10;;;;;;;-141.97;61.96;47588.28;5012772;28;20189;-83
2023/06/04 05:05:00;;;;;;;12.27;8.40;;;;;;;-141.97;61.77;47586.34;5012414;28;20627;-83
2023/06/04 05:07:26;;;;;;;12.80;8.13;;;;;;;-141.97;61.57;47547.91;5012575;28;20183;-84
2023/06/04 05:09:51;;;;;;;11.23;7.93;;;;;;;-141.97;61.13;47582.50;5001597;28;20274;-82
2023/06/04 05:12:17;;;;;;;14.20;7.70;;;;;;;-141.97;59.86;47597.88;4976323;28;20218;-83
2023/06/04 05:14:42;;;;;;;13.40;8.00;;;;;;;-141.97;59.16;47595.97;4993293;28;20199;-83
2023/06/04 05:17:09;;;;;;;11.50;7.73;;;;;;;-141.97;59.07;47499.84;4993027;28;20171;-84
2023/06/04 05:19:34;;;;;;;11.23;7.63;;;;;;;-141.97;58.44;47497.94;4992856;28;20226;-83
2023/06/04 05:22:02;;;;;;;9.73;7.67;;;;;;;-141.97;57.69;47711.28;4992939;28;20172;-84
2023/06/04 05:24:28;;;;;;;10.93;7.63;;;;;;;-141.97;57.70;47526.75;4996654;28;20163;-83
2023/06/04 05:26:54;;;;;;;12.47;7.73;;;;;;;-141.97;58.30;47572.91;4996775;28;20167;-83
2023/06/04 05:29:20;;;;;;;11.50;7.80;;;;;;;-141.97;58.33;47584.44;4979340;28;20171;-83
2023/06/04 05:31:46;;;;;;;14.40;8.67;;;;;;;-141.97;58.38;47588.28;4996465;28;20172;-82
2023/06/04 05:34:15;;;;;;;11.27;8.20;;;;;;;-141.97;58.10;47692.06;4996473;28;20182;-82
2023/06/04 05:36:40;;;;;;;10.20;7.90;;;;;;;-141.97;56.85;47549.84;4996554;28;20546;-84
2023/06/04 05:39:06;;;;;;;18.90;7.83;;;;;;;-141.97;55.78;47565.22;4996079;28;20267;-83
2023/06/04 05:41:32;;;;;;;14.03;7.50;;;;;;;-141.97;56.12;47461.41;4996622;28;20160;-83
2023/06/04 05:43:57;;;;;;;12.30;8.10;;;;;;;-141.97;55.90;47557.53;4996635;28;20163;-83
2023/06/04 05:46:23;;;;;;;9.93;7.87;;;;;;;-141.97;56.02;47544.06;4996846;28;20167;-83
2023/06/04 05:48:48;;;;;;;14.10;7.67;;;;;;;-141.97;56.18;47772.78;4996892;28;20246;-85
2023/06/04 05:51:14;;;;;;;9.40;7.43;;;;;;;-141.97;55.84;47542.16;4996970;28;20159;-83
2023/06/04 05:53:39;;;;;;;11.83;8.10;;;;;;;-141.97;56.22;47536.38;4997274;28;20156;-84
2023/06/04 05:56:05;;;;;;;11.73;8.23;;;;;;;-141.97;56.33;47521.00;4982896;28;20191;-83
2023/06/04 05:58:34;;;;;;;12.27;8.07;;;;;;;-141.97;56.31;47544.06;4995138;28;20745;-83
2023/06/04 06:01:00;;;;;;;12.03;8.20;;;;;;;-141.97;55.87;47595.97;4996428;28;20179;-82
2023/06/04 06:03:27;;;;;;;12.20;8.70;;;;;;;-141.97;55.11;47582.50;4996646;28;20539;-81
2023/06/04 06:05:54;;;;;;;10.80;7.97;;;;;;;-141.97;55.08;47592.13;5007487;28;20175;-82
2023/06/04 06:08:20;;;;;;;11.30;8.37;;;;;;;-141.97;54.63;47484.47;5019507;28;20164;-84
2023/06/04 06:10:46;;;;;;;12.67;8.43;;;;;;;-141.97;54.62;47561.38;5000657;28;20201;-83
2023/06/04 06:13:12;;;;;;;15.77;9.13;;;;;;;-141.97;54.49;47669.00;4999132;28;20183;-82
2023/06/04 06:15:38;;;;;;;11.17;8.73;;;;;;;-141.97;53.64;47684.38;4996005;28;20663;-83
2023/06/04 06:18:04;;;;;;;12.97;9.10;;;;;;;-141.97;53.01;47396.06;4997255;28;20243;-83
2023/06/04 06:20:29;;;;;;;13.17;9.03;;;;;;;-141.97;52.79;47530.59;4997933;28;20191;-82
2023/06/04 06:22:54;;;;;;;13.77;9.43;;;;;;;-141.97;53.10;47753.56;4995884;28;20179;-83
2023/06/04 06:25:20;;;;;;;14.30;10.43;;;;;;;-141.97;53.31;47507.53;4996209;28;20174;-83
2023/06/04 06:27:45;;;;;;;14.80;9.40;;;;;;;-141.97;53.45;47607.50;4996805;28;20167;-82
2023/06/04 06:30:12;;;;;;;12.83;9.53;;;;;;;-141.97;53.10;47574.81;4978517;28;20655;-81
2023/06/04 06:32:38;;;;;;;12.53;9.33;;;;;;;-141.97;53.07;47544.06;4978354;28;20171;-82
2023/06/04 06:35:03;;;;;;;10.63;8.87;;;;;;;-141.97;52.89;47505.63;4994978;28;20333;-83
2023/06/04 06:37:29;;;;;;;13.30;10.10;;;;;;;-141.97;52.37;47522.91;4996615;28;20179;-83
2023/06/04 06:39:54;;;;;;;14.17;9.73;;;;;;;-141.97;52.58;47546.00;4995708;28;20755;-84
2023/06/04 06:42:20;;;;;;;18.40;12.70;;;;;;;-141.97;52.67;47584.44;4978730;28;20178;-82
2023/06/04 06:44:45;;;;;;;14.63;10.37;;;;;;;-141.97;52.54;47536.38;4995576;28;20243;-82
2023/06/04 06:47:13;;;;;;;12.73;9.30;;;;;;;-141.97;53.06;47474.88;4995526;28;20187;-84
2023/06/04 06:49:39;;;;;;;15.23;9.03;;;;;;;-141.97;53.27;47755.50;4995842;28;20684;-83
2023/06/04 06:52:05;;;;;;;13.63;8.73;;;;;;;-141.97;52.52;47540.22;4995339;28;20202;-85
2023/06/04 06:54:30;;;;;;;11.40;9.50;;;;;;;-141.97;50.88;47553.69;4993528;28;20218;-83
2023/06/04 06:56:56;;;;;;;13.03;9.80;;;;;;;-141.97;49.77;47759.34;4995281;28;20203;-82
2023/06/04 06:59:21;;;;;;;13.70;9.27;;;;;;;-141.97;50.01;47515.22;4994632;28;20223;-82
2023/06/04 07:01:47;;;;;;;13.27;9.60;;;;;;;-141.97;50.35;47522.91;4995835;28;20188;-82
2023/06/04 07:04:12;;;;;;;12.13;10.10;;;;;;;-141.97;49.60;47536.38;4995752;28;21229;-83
2023/06/04 07:06:38;;;;;;;15.80;10.27;;;;;;;-141.97;49.33;47482.56;5001172;28;20194;-84
2023/06/04 07:09:05;;;;;;;14.03;11.67;;;;;;;-141.97;50.39;47421.06;4999766;28;20241;-83
2023/06/04 07:11:31;;;;;;;14.57;10.90;;;;;;;-141.97;50.09;47636.31;4998274;28;20220;-83
2023/06/04 07:13:57;;;;;;;14.87;11.07;;;;;;;-141.97;50.58;47503.69;4996967;28;20629;-81
2023/06/04 07:16:22;;;;;;;17.10;10.63;;;;;;;-141.97;51.94;47549.84;4994714;28;20785;-82
2023/06/04 07:18:49;;;;;;;15.27;10.67;;;;;;;-141.97;51.59;47436.44;4993621;28;20282;-82
2023/06/04 07:21:15;;;;;;;14.70;10.30;;;;;;;-141.97;51.64;47530.59;4995083;28;20174;-84
2023/06/04 07:23:41;;;;;;;14.73;9.80;;;;;;;-141.97;51.74;47688.22;4995086;28;20164;-83
2023/06/04 07:26:06;;;;;;;12.33;8.90;;;;;;;-141.97;50.92;47692.06;4994410;28;20246;-82
2023/06/04 07:28:32;;;;;;;10.90;8.93;;;;;;;-141.97;51.19;47538.28;4994755;28;20286;-82
2023/06/04 07:30:58;;;;;;;13.47;10.10;;;;;;;-141.97;52.37;47574.81;4994547;28;20651;-83
2023/06/04 07:33:24;;;;;;;14.30;9.57;;;;;;;-141.97;53.69;47570.97;4995009;28;20242;-83
2023/06/04 07:35:49;;;;;;;10.97;9.47;;;;;;;-141.97;54.37;47780.47;4994577;28;20226;-85
2023/06/04 07:38:15;;;;;;;12.73;9.77;;;;;;;-141.97;55.32;47534.44;4994815;28;20203;-82
2023/06/04 07:40:41;;;;;;;13.50;9.90;;;;;;;-141.97;55.48;47565.22;4996500;28;20612;-84
2023/06/04 07:43:06;;;;;;;14.37;10.60;;;;;;;-141.97;55.59;47432.59;4995080;28;20231;-82
2023/06/04 07:45:32;;;;;;;13.47;10.27;;;;;;;-141.97;55.59;47519.06;4994799;28;20163;-83
2023/06/04 07:47:57;;;;;;;13.37;10.40;;;;;;;-141.97;55.17;47572.91;4996934;28;20251;-83
2023/06/04 07:50:22;;;;;;;13.37;9.90;;;;;;;-141.97;55.38;47503.69;4995104;28;20251;-81
2023/06/04 07:52:48;;;;;;;17.07;11.10;;;;;;;-141.97;55.87;47572.91;4995533;28;20167;-83
2023/06/04 07:55:14;;;;;;;14.87;10.97;;;;;;;-141.97;56.77;47446.03;4995472;28;20246;-82
2023/06/04 07:57:39;;;;;;;14.30;11.00;;;;;;;-141.97;56.78;47557.53;4995557;28;20172;-84
2023/06/04 08:00:07;;;;;;;13.97;11.20;;;;;;;-141.97;57.26;47499.84;4997670;28;20238;-84
2023/06/04 08:02:33;;;;;;;15.67;11.57;;;;;;;-141.97;57.85;47565.22;4994586;28;20180;-82
2023/06/04 08:04:58;;;;;;;14.03;11.23;;;;;;;-141.97;58.21;47561.38;4994290;28;20213;-82
2023/06/04 08:07:23;;;;;;;15.70;10.87;;;;;;;-141.97;58.56;47599.81;4995055;28;20170;-83
2023/06/04 08:09:49;;;;;;;13.70;11.23;;;;;;;-141.97;57.26;47478.72;4995403;28;20242;-84
2023/06/04 08:12:16;;;;;;;16.17;11.77;;;;;;;-141.97;57.64;47574.81;4997964;28;20194;-83
2023/06/04 08:14:41;;;;;;;13.73;11.50;;;;;;;-141.97;58.01;47801.63;4997387;28;20265;-80
2023/06/04 08:17:07;;;;;;;13.10;10.47;;;;;;;-141.97;57.64;47549.84;4998618;28;20172;-83
2023/06/04 08:19:32;;;;;;;15.27;10.73;;;;;;;-141.97;57.66;47569.06;4994702;28;20229;-83
2023/06/04 08:21:58;;;;;;;11.90;9.40;;;;;;;-141.97;56.15;47517.16;5000644;28;20197;-83
2023/06/04 08:24:23;;;;;;;13.23;9.20;;;;;;;-141.97;54.22;47540.22;5004939;28;20178;-83
2023/06/04 08:26:50;;;;;;;12.50;9.63;;;;;;;-141.97;55.32;47553.69;4995251;28;20167;-82
2023/06/04 08:29:15;;;;;;;15.03;9.63;;;;;;;-141.97;53.92;47507.53;5013071;28;20175;-82
2023/06/04 08:31:41;;;;;;;12.93;9.80;;;;;;;-141.97;54.29;47522.91;5002188;28;20159;-82
2023/06/04 08:34:06;;;;;;;13.27;9.80;;;;;;;-141.97;54.19;47559.44;4994083;28;20578;-84
2023/06/04 08:36:34;;;;;;;11.77;9.47;;;;;;;-141.97;54.69;47376.84;4993559;28;20222;-83
2023/06/04 08:39:01;;;;;;;13.37;9.30;;;;;;;-141.97;54.95;47553.69;4993359;28;20167;-82
2023/06/04 08:41:38;;;;;;;13.30;9.77;;;;;;;-141.97;54.25;47549.84;4994732;28;20163;-83
2023/06/04 08:44:06;;;;;;;14.93;8.73;;;;;;;-141.97;52.98;47761.25;4977762;28;20182;-83
2023/06/04 08:46:32;;;;;;;12.23;8.27;;;;;;;-141.97;52.08;47522.91;4993791;28;20358;-84
2023/06/04 08:49:03;;;;;;;10.43;7.40;;;;;;;-141.97;49.71;47494.09;4993229;28;20164;-85
2023/06/04 08:51:32;;;;;;;10.57;8.00;;;;;;;-141.97;50.04;47467.19;4993232;28;20520;-82
2023/06/04 08:53:59;;;;;;;9.83;8.33;;;;;;;-141.97;50.68;47653.63;4992877;28;20179;-82
2023/06/04 08:56:25;;;;;;;13.40;8.70;;;;;;;-141.97;52.03;47569.06;4993410;28;20206;-83
2023/06/04 08:58:51;;;;;;;10.13;8.33;;;;;;;-141.97;51.30;47542.16;4995632;28;20308;-82
2023/06/04 09:01:17;;;;;;;9.93;8.17;;;;;;;-141.97;50.92;47546.00;4997109;28;20171;-82
2023/06/04 09:03:43;;;;;;;12.23;9.10;;;;;;;-141.97;52.78;47465.25;4997314;28;20254;-82
2023/06/04 09:06:08;;;;;;;11.83;9.10;;;;;;;-141.97;53.33;47557.53;4997916;28;20640;-83
2023/06/04 09:08:37;;;;;;;14.57;9.40;;;;;;;-141.97;52.12;47549.84;4997140;28;20559;-83
2023/06/04 09:11:10;;;;;;;12.13;9.10;;;;;;;-141.97;51.94;47542.16;4995947;28;20182;-83
2023/06/04 09:13:36;;;;;;;10.77;8.37;;;;;;;-141.97;50.75;47532.53;4997334;28;20164;-83
2023/06/04 09:16:03;;;;;;;11.00;8.50;;;;;;;-141.97;50.32;47582.50;4996733;28;20221;-82
2023/06/04 09:18:29;;;;;;;11.90;8.50;;;;;;;-141.97;50.49;47534.44;4997257;28;20214;-84
2023/06/04 09:21:05;;;;;;;11.30;8.30;;;;;;;-141.97;49.82;47718.97;4996830;28;20182;-83
2023/06/04 09:23:31;;;;;;;10.30;8.30;;;;;;;-141.97;50.14;47374.94;4996703;28;20159;-83
2023/06/04 09:26:07;;;;;;;10.37;8.10;;;;;;;-141.97;49.81;47522.91;5013328;28;20588;-82
2023/06/04 09:28:33;;;;;;;11.30;8.00;;;;;;;-141.97;49.36;47561.38;4998865;28;20553;-85
2023/06/04 09:30:58;;;;;;;10.83;7.73;;;;;;;-141.97;48.99;47507.53;5015981;28;20177;-82
2023/06/04 09:33:26;;;;;;;11.00;8.10;;;;;;;-141.97;49.15;47519.06;5016114;28;20166;-82
2023/06/04 09:35:56;;;;;;;9.73;8.07;;;;;;;-141.97;49.33;47511.38;5018174;28;20183;-83
2023/06/04 09:38:22;;;;;;;10.60;9.00;;;;;;;-141.97;51.07;47507.53;5016051;28;20600;-82
2023/06/04 09:40:49;;;;;;;12.77;8.60;;;;;;;-141.97;50.09;47703.59;5016491;28;20173;-83
2023/06/04 09:43:23;;;;;;;10.23;8.53;;;;;;;-141.97;50.17;47526.75;4998444;28;20170;-82
2023/06/04 09:45:48;;;;;;;9.23;7.87;;;;;;;-141.97;49.48;47446.03;5016102;28;20170;-83
2023/06/04 09:48:23;;;;;;;13.17;8.87;;;;;;;-141.97;50.75;47557.53;5016312;28;20171;-82
2023/06/04 09:50:48;;;;;;;13.63;9.10;;;;;;;-141.97;50.63;47407.59;5016400;28;20166;-83
2023/06/04 09:53:22;;;;;;;11.63;8.50;;;;;;;-141.97;50.09;47557.53;5015863;28;20173;-82
2023/06/04 09:55:56;;;;;;;12.70;8.60;;;;;;;-141.97;48.81;47355.72;5016420;28;20276;-84
2023/06/04 09:58:25;;;;;;;11.13;8.10;;;;;;;-141.97;47.83;47642.09;5015920;28;20217;-82
2023/06/04 10:00:53;;;;;;;11.37;8.50;;;;;;;-141.97;46.92;47499.84;5015791;28;20313;-84
2023/06/04 10:03:25;;;;;;;11.90;8.02;;;;;;;-141.97;46.81;47432.59;5016237;28;20175;-83
2023/06/04 10:05:53;;;;;;;13.90;8.23;;;;;;;-141.97;46.33;47496.00;5015666;28;20154;-82
2023/06/04 10:08:22;;;;;;;10.43;8.13;;;;;;;-141.97;46.50;47547.91;4997679;28;20174;-83
2023/06/04 10:10:50;;;;;;;9.03;7.50;;;;;;;-141.97;46.67;47765.09;5015462;28;20167;-82
2023/06/04 10:13:19;;;;;;;12.40;7.72;;;;;;;-141.97;46.45;47507.53;4997650;28;20270;-83
2023/06/04 10:15:46;;;;;;;12.07;7.73;;;;;;;-141.97;47.14;47538.28;4997841;28;20573;-82
2023/06/04 10:18:13;;;;;;;8.83;7.43;;;;;;;-141.97;45.92;47549.84;5015601;28;20492;-80
2023/06/04 10:20:40;;;;;;;10.80;7.43;;;;;;;-141.97;45.25;47649.78;5014967;28;20254;-83
2023/06/04 10:23:07;;;;;;;9.53;7.80;;;;;;;-141.97;45.92;47434.50;5015526;28;20209;-83
2023/06/04 10:25:34;;;;;;;12.03;7.37;;;;;;;-141.97;45.35;47492.16;5015487;28;20159;-82
2023/06/04 10:28:01;;;;;;;10.03;7.30;;;;;;;-141.97;44.30;47507.53;5015305;28;20170;-83
2023/06/04 10:30:27;;;;;;;8.43;6.13;;;;;;;-141.97;42.69;47703.59;4998494;28;20191;-82
2023/06/04 10:32:53;;;;;;;8.57;6.33;;;;;;;-141.97;42.72;47546.00;4996202;28;20167;-84
2023/06/04 10:35:30;;;;;;;8.93;6.60;;;;;;;-141.97;42.11;47476.78;4978480;28;20237;-82
2023/06/04 10:38:10;;;;;;;10.73;6.30;;;;;;;-141.97;43.50;47513.31;4999197;28;20160;-84
2023/06/04 10:40:38;;;;;;;9.27;6.23;;;;;;;-141.97;43.89;47549.84;4999067;28;20174;-83
2023/06/04 10:43:11;;;;;;;7.73;6.50;;;;;;;-141.97;44.12;47417.22;4996734;28;20246;-82
2023/06/04 10:45:37;;;;;;;8.23;6.13;;;;;;;-141.97;43.18;47472.94;4996759;28;20521;-85
2023/06/04 10:48:11;;;;;;;6.03;4.63;;;;;;;-141.97;38.58;47532.53;4996646;28;20179;-82
2023/06/04 10:50:51;;;;;;;9.87;5.77;;;;;;;-141.97;41.06;47507.53;5011519;28;20175;-81
2023/06/04 10:53:18;;;;;;;6.20;4.63;;;;;;;-141.97;38.32;47557.53;5006950;28;20234;-84
2023/06/04 10:55:46;;;;;;;8.83;5.57;;;;;;;-141.97;42.05;47776.63;4996351;28;20197;-84
2023/06/04 10:58:11;;;;;;;8.23;5.90;;;;;;;-141.97;42.67;47361.47;4996106;28;20688;-83
2023/06/04 11:00:48;;;;;;;9.30;6.07;;;;;;;-141.97;43.07;47496.00;4996189;28;20160;-82
2023/06/04 11:03:14;;;;;;;9.87;7.30;;;;;;;-141.97;45.00;47682.47;4997764;28;20153;-82
2023/06/04 11:05:40;;;;;;;14.13;10.35;;;;;;;-141.97;49.25;47507.53;4997150;28;20152;-83
2023/06/04 11:08:06;;;;;;;17.58;11.05;;;;;;;-141.97;49.78;47505.63;4996259;28;20169;-82
2023/06/04 11:10:34;;;;;;;12.55;11.30;;;;;;;-141.97;50.38;47538.28;4996333;28;20183;-82